Time;durP1;ratioP1;P1;durP2;ratioP2;P2;SDS_P1;SDS_P2;PMS_P1;PMS_P2;Temp;Humidity;BMP_temperature;BMP_pressure;BME280_temperature;BME280_humidity;BME280_pressure;Samples;Min_cycle;Max_cycle;Signal;HPM_P1;HPM_P2
2024/02/20 00:00:29;;;;;;;39.20;7.43;;;;;;;;;;5008269;28;25053;-65
2024/02/20 00:02:55;;;;;;;32.38;7.47;;;;;;;;;;5009078;28;25122;-63
2024/02/20 00:05:21;;;;;;;33.88;7.50;;;;;;;;;;5004556;28;25060;-65
2024/02/20 00:07:47;;;;;;;57.47;8.98;;;;;;;;;;5007444;28;25078;-64
2024/02/20 00:10:13;;;;;;;41.80;8.10;;;;;;;;;;5001417;28;25052;-64
2024/02/20 00:12:42;;;;;;;37.45;6.88;;;;;;;;;;5005540;28;25078;-63
2024/02/20 00:15:08;;;;;;;42.10;7.95;;;;;;;;;;4995230;28;25089;-65
2024/02/20 00:17:38;;;;;;;44.28;7.80;;;;;;;;;;5005373;28;25100;-65
2024/02/20 00:20:08;;;;;;;42.47;8.73;;;;;;;;;;4998050;28;25048;-65
2024/02/20 00:22:34;;;;;;;46.13;8.45;;;;;;;;;;5002543;28;25130;-65
2024/02/20 00:25:00;;;;;;;42.13;8.25;;;;;;;;;;5002094;28;25061;-65
2024/02/20 00:27:28;;;;;;;41.75;7.13;;;;;;;;;;4999491;28;25047;-64
2024/02/20 00:29:54;;;;;;;37.20;7.50;;;;;;;;;;4999929;28;25056;-66
2024/02/20 00:32:21;;;;;;;37.80;7.40;;;;;;;;;;5000947;28;25157;-64
2024/02/20 00:34:47;;;;;;;40.00;7.20;;;;;;;;;;4998764;28;25160;-64
2024/02/20 00:37:14;;;;;;;39.38;8.35;;;;;;;;;;4984654;28;25067;-65
2024/02/20 00:39:40;;;;;;;41.08;7.38;;;;;;;;;;4998209;28;25067;-65
2024/02/20 00:42:07;;;;;;;39.53;7.45;;;;;;;;;;5005707;28;25082;-65
2024/02/20 00:44:33;;;;;;;40.50;9.23;;;;;;;;;;5007308;28;25058;-64
2024/02/20 00:46:59;;;;;;;45.83;7.75;;;;;;;;;;5006721;28;25091;-66
2024/02/20 00:49:25;;;;;;;47.80;8.90;;;;;;;;;;5008889;28;25148;-64
2024/02/20 00:51:51;;;;;;;40.13;7.38;;;;;;;;;;5009458;28;25067;-64
2024/02/20 00:54:18;;;;;;;43.13;7.47;;;;;;;;;;5005667;28;25098;-65
2024/02/20 00:56:46;;;;;;;42.15;8.30;;;;;;;;;;5008055;28;25171;-64
2024/02/20 00:59:12;;;;;;;45.75;9.45;;;;;;;;;;5007585;28;25065;-64
2024/02/20 01:01:38;;;;;;;36.63;7.63;;;;;;;;;;5003957;28;25176;-64
2024/02/20 01:04:05;;;;;;;43.70;7.65;;;;;;;;;;5007863;28;25090;-66
2024/02/20 01:06:36;;;;;;;47.13;7.78;;;;;;;;;;5002756;28;25084;-65
2024/02/20 01:09:03;;;;;;;35.53;7.15;;;;;;;;;;5007296;28;25067;-64
2024/02/20 01:11:30;;;;;;;45.53;8.30;;;;;;;;;;4999470;28;25062;-64
2024/02/20 01:13:56;;;;;;;45.78;7.20;;;;;;;;;;5006514;28;25162;-66
2024/02/20 01:16:22;;;;;;;49.55;7.88;;;;;;;;;;5005650;28;25080;-64
2024/02/20 01:18:48;;;;;;;44.60;7.18;;;;;;;;;;5006344;28;25097;-65
2024/02/20 01:21:14;;;;;;;45.47;7.80;;;;;;;;;;5000268;28;25086;-65
2024/02/20 01:23:40;;;;;;;31.27;7.30;;;;;;;;;;5009428;28;25171;-65
2024/02/20 01:26:06;;;;;;;45.88;8.82;;;;;;;;;;5005340;28;25079;-65
2024/02/20 01:28:32;;;;;;;33.25;7.93;;;;;;;;;;5003553;28;25082;-64
2024/02/20 01:30:58;;;;;;;48.65;8.32;;;;;;;;;;5014290;28;25072;-66
2024/02/20 01:33:24;;;;;;;41.10;7.43;;;;;;;;;;5017922;28;25046;-64
2024/02/20 01:35:50;;;;;;;43.17;7.70;;;;;;;;;;4999509;28;25045;-65
2024/02/20 01:38:16;;;;;;;31.77;6.88;;;;;;;;;;5005469;28;25147;-64
2024/02/20 01:40:43;;;;;;;41.83;6.82;;;;;;;;;;5003725;28;25099;-64
2024/02/20 01:43:09;;;;;;;47.78;9.40;;;;;;;;;;4989770;28;25100;-65
2024/02/20 01:45:35;;;;;;;28.13;6.68;;;;;;;;;;5001253;28;25074;-64
2024/02/20 01:48:02;;;;;;;28.38;6.80;;;;;;;;;;5006525;28;25153;-64
2024/02/20 01:50:29;;;;;;;28.90;7.03;;;;;;;;;;5006312;28;25068;-64
2024/02/20 01:52:55;;;;;;;42.97;7.22;;;;;;;;;;5004282;28;25060;-65
2024/02/20 01:55:21;;;;;;;43.50;7.55;;;;;;;;;;5005543;28;25069;-64
2024/02/20 01:57:48;;;;;;;37.92;6.93;;;;;;;;;;5007402;28;25066;-64
2024/02/20 02:00:14;;;;;;;34.50;7.13;;;;;;;;;;5000788;28;25049;-65
2024/02/20 02:02:41;;;;;;;35.53;7.03;;;;;;;;;;5001911;28;25075;-65
2024/02/20 02:05:08;;;;;;;45.20;7.22;;;;;;;;;;5004021;28;25089;-63
2024/02/20 02:07:34;;;;;;;36.40;7.75;;;;;;;;;;5008975;28;25143;-65
2024/02/20 02:10:00;;;;;;;39.20;7.53;;;;;;;;;;5000563;28;25152;-64
2024/02/20 02:12:27;;;;;;;35.67;7.03;;;;;;;;;;5006046;28;25100;-64
2024/02/20 02:14:53;;;;;;;40.28;7.20;;;;;;;;;;5004141;28;25064;-64
2024/02/20 02:17:19;;;;;;;33.00;8.02;;;;;;;;;;5005489;28;25046;-64
2024/02/20 02:19:45;;;;;;;35.50;7.72;;;;;;;;;;4997744;28;25052;-64
2024/02/20 02:22:11;;;;;;;39.92;6.80;;;;;;;;;;5006964;28;25053;-65
2024/02/20 02:24:38;;;;;;;34.33;7.10;;;;;;;;;;5004182;28;25056;-65
2024/02/20 02:27:04;;;;;;;30.17;5.88;;;;;;;;;;4999938;28;25050;-64
2024/02/20 02:29:31;;;;;;;38.00;7.43;;;;;;;;;;5002109;28;25087;-67
2024/02/20 02:31:57;;;;;;;36.28;7.82;;;;;;;;;;5008482;28;25137;-65
2024/02/20 02:34:24;;;;;;;36.50;7.30;;;;;;;;;;4982512;28;25091;-64
2024/02/20 02:36:50;;;;;;;38.97;6.88;;;;;;;;;;4999951;28;25152;-65
2024/02/20 02:39:17;;;;;;;28.48;6.78;;;;;;;;;;5006571;28;25177;-64
2024/02/20 02:41:43;;;;;;;33.95;6.57;;;;;;;;;;5007633;28;25069;-65
2024/02/20 02:44:09;;;;;;;37.97;7.20;;;;;;;;;;4994244;28;25120;-65
2024/02/20 02:46:35;;;;;;;34.05;6.57;;;;;;;;;;5004132;28;25060;-65
2024/02/20 02:49:01;;;;;;;35.20;6.82;;;;;;;;;;5000629;28;25061;-65
2024/02/20 02:51:27;;;;;;;36.17;6.70;;;;;;;;;;5006161;28;25050;-64
2024/02/20 02:53:53;;;;;;;38.70;6.53;;;;;;;;;;5007936;28;25053;-64
2024/02/20 02:56:22;;;;;;;36.72;6.50;;;;;;;;;;5007013;28;25064;-63
2024/02/20 02:58:48;;;;;;;36.65;7.97;;;;;;;;;;5001263;28;25070;-64
2024/02/20 03:01:14;;;;;;;36.75;7.30;;;;;;;;;;5000463;28;25162;-64
2024/02/20 03:03:40;;;;;;;27.42;6.65;;;;;;;;;;5002947;28;25062;-65
2024/02/20 03:06:08;;;;;;;33.97;6.13;;;;;;;;;;4996655;28;25143;-66
2024/02/20 03:08:34;;;;;;;30.02;6.75;;;;;;;;;;5004734;28;25061;-67
2024/02/20 03:11:00;;;;;;;33.63;6.32;;;;;;;;;;5001173;28;25052;-66
2024/02/20 03:13:26;;;;;;;27.67;5.82;;;;;;;;;;4998084;28;25070;-64
2024/02/20 03:15:52;;;;;;;28.05;6.25;;;;;;;;;;5007403;28;25069;-65
2024/02/20 03:18:18;;;;;;;31.33;7.22;;;;;;;;;;4980037;28;25104;-64
2024/02/20 03:20:44;;;;;;;33.25;6.68;;;;;;;;;;5002881;28;25151;-66
2024/02/20 03:23:10;;;;;;;32.00;6.47;;;;;;;;;;5005237;28;25099;-63
2024/02/20 03:25:36;;;;;;;31.77;7.90;;;;;;;;;;5001983;28;25059;-64
2024/02/20 03:28:02;;;;;;;33.50;6.63;;;;;;;;;;4995830;28;25060;-64
2024/02/20 03:30:28;;;;;;;33.97;6.95;;;;;;;;;;5003422;28;25147;-64
2024/02/20 03:32:55;;;;;;;38.08;7.05;;;;;;;;;;5006683;28;25089;-67
2024/02/20 03:35:21;;;;;;;37.33;6.80;;;;;;;;;;5001812;28;25066;-65
2024/02/20 03:37:48;;;;;;;32.88;6.43;;;;;;;;;;4993151;28;25059;-65
2024/02/20 03:40:14;;;;;;;36.45;7.03;;;;;;;;;;4993044;28;25085;-65
2024/02/20 03:42:41;;;;;;;36.05;6.90;;;;;;;;;;4983566;28;25075;-65
2024/02/20 03:45:07;;;;;;;42.90;7.22;;;;;;;;;;4982723;28;25074;-65
2024/02/20 03:47:33;;;;;;;33.95;7.18;;;;;;;;;;5016015;28;25076;-64
2024/02/20 03:49:59;;;;;;;39.15;7.20;;;;;;;;;;5011737;28;25077;-66
2024/02/20 03:52:25;;;;;;;32.63;7.28;;;;;;;;;;5020517;28;25080;-63
2024/02/20 03:54:51;;;;;;;32.83;6.65;;;;;;;;;;5012957;28;25080;-67
2024/02/20 03:57:17;;;;;;;35.92;6.47;;;;;;;;;;5003187;28;25068;-64
2024/02/20 03:59:43;;;;;;;46.72;7.70;;;;;;;;;;5006190;28;25056;-66
2024/02/20 04:02:10;;;;;;;36.15;6.82;;;;;;;;;;5008642;28;25102;-65
2024/02/20 04:04:36;;;;;;;37.95;7.10;;;;;;;;;;5004012;28;25073;-65
2024/02/20 04:07:02;;;;;;;32.28;6.35;;;;;;;;;;5001834;28;25048;-64
2024/02/20 04:09:28;;;;;;;34.47;7.22;;;;;;;;;;5002446;28;25051;-65
2024/02/20 04:11:54;;;;;;;34.45;8.15;;;;;;;;;;5001927;28;25072;-65
2024/02/20 04:14:20;;;;;;;33.75;7.35;;;;;;;;;;5003500;28;25081;-64
2024/02/20 04:16:46;;;;;;;34.38;6.88;;;;;;;;;;5007201;28;25051;-64
2024/02/20 04:19:12;;;;;;;27.83;5.90;;;;;;;;;;5006232;28;25127;-65
2024/02/20 04:21:38;;;;;;;35.95;7.10;;;;;;;;;;5010165;28;25119;-64
2024/02/20 04:24:04;;;;;;;35.45;7.63;;;;;;;;;;5008013;28;25101;-65
2024/02/20 04:26:30;;;;;;;44.25;7.05;;;;;;;;;;5011523;28;25170;-66
2024/02/20 04:28:56;;;;;;;42.83;8.23;;;;;;;;;;5004439;28;25057;-65
2024/02/20 04:31:22;;;;;;;38.95;7.57;;;;;;;;;;5004993;28;25071;-65
2024/02/20 04:33:48;;;;;;;36.88;6.93;;;;;;;;;;5000237;28;25062;-64
2024/02/20 04:36:15;;;;;;;34.92;7.05;;;;;;;;;;5000998;28;25059;-65
2024/02/20 04:38:41;;;;;;;42.42;7.00;;;;;;;;;;5010211;28;25064;-64
2024/02/20 04:41:07;;;;;;;45.42;7.95;;;;;;;;;;5009781;28;25072;-65
2024/02/20 04:43:34;;;;;;;30.48;6.65;;;;;;;;;;5007415;28;25101;-65
2024/02/20 04:46:00;;;;;;;38.33;6.95;;;;;;;;;;5012923;28;25069;-67
2024/02/20 04:48:26;;;;;;;36.47;6.63;;;;;;;;;;5009723;28;25088;-63
2024/02/20 04:50:53;;;;;;;35.60;7.03;;;;;;;;;;5000694;28;25167;-65
2024/02/20 04:53:19;;;;;;;42.40;7.93;;;;;;;;;;5010731;28;25151;-64
2024/02/20 04:55:45;;;;;;;39.38;6.93;;;;;;;;;;5002318;28;25050;-66
2024/02/20 04:58:11;;;;;;;44.60;7.90;;;;;;;;;;5003774;28;25136;-66
2024/02/20 05:00:37;;;;;;;36.83;7.57;;;;;;;;;;5002875;28;25105;-64
2024/02/20 05:03:04;;;;;;;42.45;8.30;;;;;;;;;;5001755;28;25164;-65
2024/02/20 05:05:31;;;;;;;38.38;7.07;;;;;;;;;;4998258;28;25168;-64
2024/02/20 05:07:57;;;;;;;33.88;6.85;;;;;;;;;;5003247;28;25058;-65
2024/02/20 05:10:23;;;;;;;43.88;7.72;;;;;;;;;;5000526;28;25098;-64
2024/02/20 05:12:49;;;;;;;35.80;7.30;;;;;;;;;;5000894;28;25062;-64
2024/02/20 05:15:15;;;;;;;35.80;8.02;;;;;;;;;;5007821;28;25145;-64
2024/02/20 05:17:41;;;;;;;37.35;8.20;;;;;;;;;;5006017;28;25064;-64
2024/02/20 05:20:08;;;;;;;41.85;7.78;;;;;;;;;;5000961;28;25156;-64
2024/02/20 05:22:34;;;;;;;45.58;8.05;;;;;;;;;;5005726;28;25081;-66
2024/02/20 05:25:00;;;;;;;54.45;10.68;;;;;;;;;;5008629;28;25081;-65
2024/02/20 05:27:26;;;;;;;37.92;7.40;;;;;;;;;;5000816;28;25109;-65
2024/02/20 05:29:52;;;;;;;50.53;9.93;;;;;;;;;;5003930;28;25079;-64
2024/02/20 05:32:19;;;;;;;39.25;8.55;;;;;;;;;;4999360;28;25061;-62
2024/02/20 05:34:46;;;;;;;43.13;8.18;;;;;;;;;;5006459;28;25093;-64
2024/02/20 05:37:12;;;;;;;37.92;9.00;;;;;;;;;;5003057;28;25148;-65
2024/02/20 05:39:38;;;;;;;49.70;7.75;;;;;;;;;;5001348;28;25103;-64
2024/02/20 05:42:04;;;;;;;36.20;8.05;;;;;;;;;;5008423;28;25070;-65
2024/02/20 05:44:30;;;;;;;39.53;8.35;;;;;;;;;;5000804;28;25069;-65
2024/02/20 05:46:56;;;;;;;40.47;7.07;;;;;;;;;;5004290;28;25060;-64
2024/02/20 05:49:22;;;;;;;41.80;9.15;;;;;;;;;;5001913;28;25050;-65
2024/02/20 05:51:48;;;;;;;48.75;8.73;;;;;;;;;;5000143;28;25073;-65
2024/02/20 05:54:15;;;;;;;43.58;9.25;;;;;;;;;;5001958;28;25102;-64
2024/02/20 05:56:43;;;;;;;42.72;8.25;;;;;;;;;;5002636;28;25072;-65
2024/02/20 05:59:09;;;;;;;38.80;7.30;;;;;;;;;;5003752;28;25165;-63
2024/02/20 06:01:35;;;;;;;54.33;9.15;;;;;;;;;;4999876;28;25149;-65
2024/02/20 06:04:04;;;;;;;42.08;9.10;;;;;;;;;;5004012;28;25061;-64
2024/02/20 06:06:30;;;;;;;35.50;8.25;;;;;;;;;;5008311;28;25109;-64
2024/02/20 06:08:59;;;;;;;37.30;7.78;;;;;;;;;;5013591;28;25063;-64
2024/02/20 06:11:26;;;;;;;39.20;7.90;;;;;;;;;;5015028;28;25065;-63
2024/02/20 06:13:52;;;;;;;42.10;7.95;;;;;;;;;;4988749;28;25069;-63
2024/02/20 06:16:20;;;;;;;52.45;9.10;;;;;;;;;;5005166;28;25094;-65
2024/02/20 06:18:46;;;;;;;45.22;9.00;;;;;;;;;;5003045;28;25085;-64
2024/02/20 06:21:12;;;;;;;49.83;8.10;;;;;;;;;;5002361;28;25079;-64
2024/02/20 06:23:38;;;;;;;42.67;7.53;;;;;;;;;;5002667;28;25101;-64
2024/02/20 06:26:05;;;;;;;42.70;7.93;;;;;;;;;;4999612;28;25064;-64
2024/02/20 06:28:32;;;;;;;47.35;8.77;;;;;;;;;;5001764;28;25075;-63
2024/02/20 06:30:59;;;;;;;45.53;9.13;;;;;;;;;;4997457;28;25069;-66
2024/02/20 06:33:25;;;;;;;53.85;9.38;;;;;;;;;;4985065;28;25074;-64
2024/02/20 06:35:51;;;;;;;41.83;7.63;;;;;;;;;;5004351;28;25070;-65
2024/02/20 06:38:17;;;;;;;41.65;7.82;;;;;;;;;;5002073;28;25066;-65
2024/02/20 06:40:43;;;;;;;48.47;8.88;;;;;;;;;;5003242;28;25074;-66
2024/02/20 06:43:09;;;;;;;43.72;7.82;;;;;;;;;;4997938;28;25057;-65
2024/02/20 06:45:35;;;;;;;37.50;7.72;;;;;;;;;;5001046;28;25066;-64
2024/02/20 06:48:01;;;;;;;34.22;8.00;;;;;;;;;;5001067;28;25051;-65
2024/02/20 06:50:27;;;;;;;45.60;7.35;;;;;;;;;;5001034;28;25084;-64
2024/02/20 06:52:53;;;;;;;41.80;8.07;;;;;;;;;;5001498;28;25052;-64
2024/02/20 06:55:20;;;;;;;45.65;9.45;;;;;;;;;;5004357;28;25083;-65
2024/02/20 06:57:46;;;;;;;48.88;7.57;;;;;;;;;;4986697;28;25073;-65
2024/02/20 07:00:14;;;;;;;43.08;8.32;;;;;;;;;;5002491;28;25089;-64
2024/02/20 07:02:43;;;;;;;44.45;8.85;;;;;;;;;;5003284;28;25057;-64
2024/02/20 07:05:13;;;;;;;47.85;8.82;;;;;;;;;;5002821;28;25055;-64
2024/02/20 07:07:39;;;;;;;43.13;8.02;;;;;;;;;;4995972;28;25055;-65
2024/02/20 07:10:07;;;;;;;33.45;8.35;;;;;;;;;;5000626;28;25078;-64
2024/02/20 07:12:33;;;;;;;47.08;9.07;;;;;;;;;;5000783;28;25054;-63
2024/02/20 07:15:02;;;;;;;39.53;8.93;;;;;;;;;;5000700;28;25062;-65
2024/02/20 07:17:28;;;;;;;48.70;8.30;;;;;;;;;;5004040;28;25084;-64
2024/02/20 07:19:55;;;;;;;39.17;7.80;;;;;;;;;;5000211;28;25074;-65
2024/02/20 07:22:21;;;;;;;38.55;8.57;;;;;;;;;;5005064;28;25052;-64
2024/02/20 07:24:47;;;;;;;50.60;8.10;;;;;;;;;;5006681;28;25060;-64
2024/02/20 07:27:13;;;;;;;41.67;8.95;;;;;;;;;;5003368;28;25110;-67
2024/02/20 07:29:42;;;;;;;44.60;8.35;;;;;;;;;;4993347;28;25063;-63
2024/02/20 07:32:09;;;;;;;42.10;8.23;;;;;;;;;;4996821;28;25045;-65
2024/02/20 07:34:36;;;;;;;40.05;8.18;;;;;;;;;;5000675;28;25060;-66
2024/02/20 07:37:02;;;;;;;43.50;7.80;;;;;;;;;;5005790;28;25143;-65
2024/02/20 07:39:28;;;;;;;39.50;8.25;;;;;;;;;;4983413;28;25068;-64
2024/02/20 07:41:54;;;;;;;47.40;8.75;;;;;;;;;;5003273;28;25063;-65
2024/02/20 07:44:20;;;;;;;51.53;10.63;;;;;;;;;;4998245;28;25068;-65
2024/02/20 07:46:49;;;;;;;43.45;7.45;;;;;;;;;;5000790;28;25053;-65
2024/02/20 07:49:15;;;;;;;39.70;8.40;;;;;;;;;;4985929;28;25132;-66
2024/02/20 07:51:41;;;;;;;36.13;7.88;;;;;;;;;;5002482;28;25058;-67
2024/02/20 07:54:07;;;;;;;43.42;8.52;;;;;;;;;;5002058;28;25070;-64
2024/02/20 07:56:33;;;;;;;43.92;8.30;;;;;;;;;;4999114;28;25058;-65
2024/02/20 07:58:59;;;;;;;26.25;7.68;;;;;;;;;;4994884;28;25055;-65
2024/02/20 08:01:25;;;;;;;40.47;8.13;;;;;;;;;;5000747;28;25075;-65
2024/02/20 08:03:54;;;;;;;45.80;8.02;;;;;;;;;;5005068;28;25093;-67
2024/02/20 08:06:21;;;;;;;31.15;6.93;;;;;;;;;;4998848;28;25070;-67
2024/02/20 08:08:47;;;;;;;38.22;7.43;;;;;;;;;;4999872;28;25104;-66
2024/02/20 08:11:13;;;;;;;41.65;9.20;;;;;;;;;;4997923;28;25074;-66
2024/02/20 08:13:43;;;;;;;42.60;8.13;;;;;;;;;;5003785;28;25052;-64
2024/02/20 08:16:12;;;;;;;36.70;8.50;;;;;;;;;;5002142;28;25060;-64
2024/02/20 08:18:41;;;;;;;35.35;7.05;;;;;;;;;;5005055;28;25054;-65
2024/02/20 08:21:07;;;;;;;40.33;7.72;;;;;;;;;;5010577;28;25075;-64
2024/02/20 08:23:34;;;;;;;38.38;7.80;;;;;;;;;;5017702;28;25081;-64
2024/02/20 08:26:02;;;;;;;39.75;7.78;;;;;;;;;;4997592;28;25058;-63
2024/02/20 08:28:28;;;;;;;42.97;7.70;;;;;;;;;;5016508;28;25050;-64
2024/02/20 08:30:54;;;;;;;42.45;8.63;;;;;;;;;;5011210;28;25097;-65
2024/02/20 08:33:20;;;;;;;42.85;7.72;;;;;;;;;;4989721;28;25099;-65
2024/02/20 08:35:46;;;;;;;40.95;8.88;;;;;;;;;;4999812;28;25084;-64
2024/02/20 08:38:12;;;;;;;44.17;8.52;;;;;;;;;;5002520;28;25079;-64
2024/02/20 08:40:38;;;;;;;38.28;7.75;;;;;;;;;;4998369;28;25068;-68
2024/02/20 08:43:04;;;;;;;38.92;8.27;;;;;;;;;;4998302;28;25060;-65
2024/02/20 08:45:31;;;;;;;39.00;7.88;;;;;;;;;;5000495;28;25072;-65
2024/02/20 08:47:59;;;;;;;40.30;9.13;;;;;;;;;;5000871;28;25068;-65
2024/02/20 08:50:25;;;;;;;42.58;9.60;;;;;;;;;;5000893;28;25054;-64
2024/02/20 08:52:51;;;;;;;43.75;9.35;;;;;;;;;;4996760;28;25058;-66
2024/02/20 08:55:17;;;;;;;50.47;10.70;;;;;;;;;;4997596;28;25059;-64
2024/02/20 08:57:43;;;;;;;34.83;9.65;;;;;;;;;;5002688;28;25172;-63
2024/02/20 09:00:11;;;;;;;52.85;9.77;;;;;;;;;;5001731;28;25095;-64
2024/02/20 09:02:38;;;;;;;37.55;10.02;;;;;;;;;;5006833;28;25141;-64
2024/02/20 09:05:04;;;;;;;36.88;8.98;;;;;;;;;;5008982;28;25064;-64
2024/02/20 09:07:30;;;;;;;44.03;11.20;;;;;;;;;;5007530;28;25105;-64
2024/02/20 09:09:56;;;;;;;39.17;8.93;;;;;;;;;;5006329;28;25124;-66
2024/02/20 09:12:22;;;;;;;45.28;9.45;;;;;;;;;;5000907;28;25075;-65
2024/02/20 09:14:48;;;;;;;45.55;9.40;;;;;;;;;;5008348;28;25073;-65
2024/02/20 09:17:15;;;;;;;43.45;8.35;;;;;;;;;;5007318;28;25081;-64
2024/02/20 09:19:41;;;;;;;35.92;9.27;;;;;;;;;;4990713;28;25078;-64
2024/02/20 09:22:10;;;;;;;40.00;8.52;;;;;;;;;;4990683;28;25118;-64
2024/02/20 09:24:36;;;;;;;45.22;9.50;;;;;;;;;;5003569;28;25072;-64
2024/02/20 09:27:03;;;;;;;35.55;9.23;;;;;;;;;;5010443;28;25064;-63
2024/02/20 09:29:31;;;;;;;39.75;9.48;;;;;;;;;;5013948;28;25071;-64
2024/02/20 09:31:58;;;;;;;37.58;9.60;;;;;;;;;;5009089;28;25140;-65
2024/02/20 09:34:24;;;;;;;33.42;8.15;;;;;;;;;;5012778;28;25071;-63
2024/02/20 09:36:50;;;;;;;36.45;8.40;;;;;;;;;;5001249;28;25201;-64
2024/02/20 09:39:16;;;;;;;40.67;8.68;;;;;;;;;;5006645;28;25082;-66
2024/02/20 09:41:43;;;;;;;37.47;7.93;;;;;;;;;;5001723;28;25070;-65
2024/02/20 09:44:10;;;;;;;41.20;9.48;;;;;;;;;;5004104;28;25105;-63
2024/02/20 09:46:41;;;;;;;36.45;8.57;;;;;;;;;;5008562;28;25123;-66
2024/02/20 09:49:08;;;;;;;41.57;9.37;;;;;;;;;;5003125;28;25059;-65
2024/02/20 09:51:34;;;;;;;38.50;10.10;;;;;;;;;;5003967;28;25080;-65
2024/02/20 09:54:00;;;;;;;37.78;9.25;;;;;;;;;;5003843;28;25134;-64
2024/02/20 09:56:26;;;;;;;49.50;9.68;;;;;;;;;;5006960;28;25109;-63
2024/02/20 09:58:52;;;;;;;41.10;9.00;;;;;;;;;;5005541;28;25067;-66
2024/02/20 10:01:18;;;;;;;35.55;8.13;;;;;;;;;;5001407;28;25140;-63
2024/02/20 10:03:45;;;;;;;41.47;8.50;;;;;;;;;;4999794;28;25061;-65
2024/02/20 10:06:14;;;;;;;33.65;8.77;;;;;;;;;;5008232;28;25056;-65
2024/02/20 10:08:40;;;;;;;36.45;8.95;;;;;;;;;;5005031;28;25048;-65
2024/02/20 10:11:06;;;;;;;39.03;9.63;;;;;;;;;;5001713;28;25075;-66
2024/02/20 10:13:42;;;;;;;48.78;9.30;;;;;;;;;;5005826;28;25069;-65
2024/02/20 10:16:13;;;;;;;43.17;9.98;;;;;;;;;;5000622;28;25146;-65
2024/02/20 10:18:39;;;;;;;42.20;9.32;;;;;;;;;;5006277;28;25065;-66
2024/02/20 10:21:08;;;;;;;37.63;9.68;;;;;;;;;;4997259;28;25082;-65
2024/02/20 10:23:34;;;;;;;37.83;9.15;;;;;;;;;;5004686;28;25106;-65
2024/02/20 10:26:01;;;;;;;42.90;11.65;;;;;;;;;;4999421;28;25058;-64
2024/02/20 10:28:27;;;;;;;33.17;9.43;;;;;;;;;;5007391;28;25062;-63
2024/02/20 10:30:55;;;;;;;35.55;8.85;;;;;;;;;;5004841;28;25069;-64
2024/02/20 10:33:21;;;;;;;41.97;10.55;;;;;;;;;;5003692;28;25081;-67
2024/02/20 10:35:47;;;;;;;37.92;10.25;;;;;;;;;;4988990;28;25048;-64
2024/02/20 10:38:18;;;;;;;41.15;10.50;;;;;;;;;;5001412;28;25067;-65
2024/02/20 10:40:45;;;;;;;41.72;9.68;;;;;;;;;;5008572;28;25101;-64
2024/02/20 10:43:12;;;;;;;38.83;11.73;;;;;;;;;;5018661;28;25059;-63
2024/02/20 10:45:41;;;;;;;38.55;10.15;;;;;;;;;;5004309;28;25130;-65
2024/02/20 10:48:10;;;;;;;40.65;9.60;;;;;;;;;;5016958;28;25088;-66
2024/02/20 10:50:36;;;;;;;35.85;8.93;;;;;;;;;;5002116;28;25062;-65
2024/02/20 10:53:03;;;;;;;44.22;10.43;;;;;;;;;;5003997;28;25063;-66
2024/02/20 10:55:31;;;;;;;40.22;9.20;;;;;;;;;;5006601;28;25141;-66
2024/02/20 10:57:59;;;;;;;39.85;8.80;;;;;;;;;;5005265;28;25062;-65
2024/02/20 11:00:27;;;;;;;27.35;8.65;;;;;;;;;;5000012;28;25070;-64
2024/02/20 11:02:53;;;;;;;37.58;10.02;;;;;;;;;;5001447;28;25168;-63
2024/02/20 11:05:19;;;;;;;35.63;8.90;;;;;;;;;;5006161;28;25111;-64
2024/02/20 11:07:46;;;;;;;33.90;9.48;;;;;;;;;;5003269;28;25050;-65
2024/02/20 11:10:15;;;;;;;31.45;8.98;;;;;;;;;;4987083;28;25140;-65
2024/02/20 11:12:41;;;;;;;37.88;9.70;;;;;;;;;;5002370;28;25171;-65
2024/02/20 11:15:07;;;;;;;46.03;9.65;;;;;;;;;;5006017;28;25137;-66
2024/02/20 11:17:36;;;;;;;32.17;9.20;;;;;;;;;;4998219;28;25086;-66
2024/02/20 11:20:06;;;;;;;34.63;8.88;;;;;;;;;;5004694;28;25123;-66
2024/02/20 11:22:32;;;;;;;36.33;8.55;;;;;;;;;;5000338;28;25055;-65
2024/02/20 11:25:06;;;;;;;33.17;8.98;;;;;;;;;;5001026;28;25133;-65
2024/02/20 11:27:42;;;;;;;42.85;9.82;;;;;;;;;;5001724;28;25057;-65
2024/02/20 11:30:13;;;;;;;32.08;8.55;;;;;;;;;;4999311;28;25087;-65
2024/02/20 11:32:39;;;;;;;32.63;8.25;;;;;;;;;;5003382;28;25066;-67
2024/02/20 11:35:18;;;;;;;37.10;9.15;;;;;;;;;;5001950;28;25050;-66
2024/02/20 11:37:47;;;;;;;43.28;9.18;;;;;;;;;;4999938;28;25116;-66
2024/02/20 11:40:21;;;;;;;29.63;9.48;;;;;;;;;;4999031;28;25053;-64
2024/02/20 11:42:47;;;;;;;25.83;8.30;;;;;;;;;;5002807;28;25131;-66
2024/02/20 11:45:20;;;;;;;33.63;8.13;;;;;;;;;;5002245;28;25154;-65
2024/02/20 11:47:45;;;;;;;;;;;;;;;;;;5003366;28;25112;-66
2024/02/20 11:50:12;;;;;;;34.40;7.82;;;;;;;;;;5000454;28;25089;-64
2024/02/20 11:52:41;;;;;;;36.33;8.00;;;;;;;;;;5003639;28;25148;-66
2024/02/20 11:55:10;;;;;;;32.55;7.72;;;;;;;;;;5003771;28;25116;-67
2024/02/20 11:57:37;;;;;;;35.90;7.93;;;;;;;;;;4999184;28;25097;-66
2024/02/20 12:00:03;;;;;;;37.13;8.27;;;;;;;;;;4985789;28;25060;-66
2024/02/20 12:02:29;;;;;;;37.97;9.55;;;;;;;;;;5002319;28;25058;-63
2024/02/20 12:04:58;;;;;;;34.63;8.95;;;;;;;;;;4999552;28;25064;-65
2024/02/20 12:07:27;;;;;;;32.25;8.38;;;;;;;;;;5002507;28;25070;-66
2024/02/20 12:09:54;;;;;;;32.45;8.65;;;;;;;;;;5000516;28;25049;-66
2024/02/20 12:12:30;;;;;;;35.72;9.25;;;;;;;;;;5002132;28;25082;-65
2024/02/20 12:15:00;;;;;;;37.75;9.40;;;;;;;;;;4997604;28;25097;-65
2024/02/20 12:17:27;;;;;;;33.55;9.65;;;;;;;;;;5000658;28;25097;-68
2024/02/20 12:20:06;;;;;;;31.13;9.10;;;;;;;;;;5000653;28;25176;-65
2024/02/20 12:22:32;;;;;;;31.98;8.32;;;;;;;;;;5004642;28;25059;-64
2024/02/20 12:25:08;;;;;;;27.27;8.02;;;;;;;;;;4996971;28;25130;-65
2024/02/20 12:27:34;;;;;;;30.50;7.07;;;;;;;;;;5002182;28;25145;-67
2024/02/20 12:30:00;;;;;;;33.60;8.57;;;;;;;;;;5002774;28;25157;-65
2024/02/20 12:32:26;;;;;;;29.75;6.70;;;;;;;;;;4988327;28;25078;-67
2024/02/20 12:34:53;;;;;;;34.08;8.23;;;;;;;;;;5001717;28;25066;-66
2024/02/20 12:37:20;;;;;;;33.05;8.05;;;;;;;;;;5005982;28;25075;-68
2024/02/20 12:39:46;;;;;;;29.67;9.23;;;;;;;;;;5014383;28;25070;-64
2024/02/20 12:42:12;;;;;;;31.70;8.80;;;;;;;;;;5008852;28;25076;-67
2024/02/20 12:44:38;;;;;;;31.85;8.63;;;;;;;;;;5013731;28;25057;-66
2024/02/20 12:47:06;;;;;;;36.97;9.50;;;;;;;;;;4992474;28;25051;-65
2024/02/20 12:49:32;;;;;;;33.58;8.30;;;;;;;;;;5011755;28;25125;-65
2024/02/20 12:51:57;;;;;;;32.17;9.10;;;;;;;;;;5004963;28;25101;-67
2024/02/20 12:54:24;;;;;;;35.25;8.88;;;;;;;;;;5005670;28;25105;-65
2024/02/20 12:56:50;;;;;;;36.35;9.15;;;;;;;;;;5006794;28;25071;-65
2024/02/20 12:59:20;;;;;;;39.85;10.13;;;;;;;;;;5005774;28;25076;-65
2024/02/20 13:01:46;;;;;;;33.22;10.93;;;;;;;;;;5009746;28;25055;-65
2024/02/20 13:04:12;;;;;;;38.17;10.85;;;;;;;;;;5006119;28;25159;-65
2024/02/20 13:06:40;;;;;;;35.60;10.55;;;;;;;;;;5019389;28;25091;-67
2024/02/20 13:09:07;;;;;;;42.70;11.73;;;;;;;;;;5015093;28;25071;-66
2024/02/20 13:11:33;;;;;;;27.77;10.35;;;;;;;;;;5017083;28;25054;-66
2024/02/20 13:13:59;;;;;;;38.13;13.45;;;;;;;;;;5017950;28;25055;-66
2024/02/20 13:16:25;;;;;;;37.38;11.65;;;;;;;;;;5006149;28;25080;-65
2024/02/20 13:18:51;;;;;;;33.83;12.45;;;;;;;;;;5008497;28;25049;-66
2024/02/20 13:21:17;;;;;;;36.15;12.90;;;;;;;;;;5002702;28;25125;-65
2024/02/20 13:23:43;;;;;;;36.00;13.25;;;;;;;;;;4992120;28;25126;-65
2024/02/20 13:26:09;;;;;;;43.80;13.38;;;;;;;;;;5003671;28;25076;-65
2024/02/20 13:28:36;;;;;;;44.20;14.82;;;;;;;;;;5009083;28;25108;-66
2024/02/20 13:31:02;;;;;;;32.10;13.80;;;;;;;;;;5005207;28;25141;-64
2024/02/20 13:33:28;;;;;;;47.83;16.63;;;;;;;;;;5015815;28;25075;-65
2024/02/20 13:35:54;;;;;;;43.97;17.00;;;;;;;;;;5013266;28;25111;-65
2024/02/20 13:38:21;;;;;;;42.30;16.40;;;;;;;;;;5017013;28;25162;-66
2024/02/20 13:40:49;;;;;;;39.22;16.25;;;;;;;;;;5013432;28;25055;-67
2024/02/20 13:43:15;;;;;;;46.30;17.20;;;;;;;;;;5005871;28;25067;-65
2024/02/20 13:45:45;;;;;;;51.60;16.98;;;;;;;;;;5002023;28;25067;-64
2024/02/20 13:48:14;;;;;;;40.03;16.33;;;;;;;;;;4996123;28;25127;-67
2024/02/20 13:50:40;;;;;;;42.45;17.48;;;;;;;;;;5003080;28;25070;-64
2024/02/20 13:53:06;;;;;;;56.97;18.52;;;;;;;;;;5003488;28;25074;-67
2024/02/20 13:55:34;;;;;;;44.95;18.55;;;;;;;;;;5004096;28;25157;-65
2024/02/20 13:58:00;;;;;;;41.72;18.08;;;;;;;;;;5002114;28;25067;-65
2024/02/20 14:00:26;;;;;;;52.40;18.45;;;;;;;;;;5005997;28;25108;-65
2024/02/20 14:02:51;;;;;;;44.17;16.60;;;;;;;;;;5004764;28;25082;-64
2024/02/20 14:05:18;;;;;;;52.33;17.67;;;;;;;;;;5003478;28;25081;-67
2024/02/20 14:07:45;;;;;;;52.13;17.40;;;;;;;;;;5003008;28;25056;-65
2024/02/20 14:10:11;;;;;;;46.92;16.90;;;;;;;;;;5001732;28;25068;-65
2024/02/20 14:12:38;;;;;;;48.45;17.08;;;;;;;;;;4988745;28;25125;-63
2024/02/20 14:15:09;;;;;;;42.22;15.13;;;;;;;;;;4999769;28;25072;-65
2024/02/20 14:17:35;;;;;;;48.65;14.68;;;;;;;;;;5006250;28;25078;-65
2024/02/20 14:20:04;;;;;;;58.95;16.83;;;;;;;;;;5003244;28;25119;-65
2024/02/20 14:22:30;;;;;;;44.67;13.68;;;;;;;;;;5003715;28;25047;-67
2024/02/20 14:24:56;;;;;;;44.78;13.95;;;;;;;;;;5003127;28;25140;-64